createdAt,value
2022-08-07T15:15:59.990Z,2.75
2022-08-07T15:18:14.571Z,3.80
2022-08-07T15:23:20.200Z,2.50
2022-08-07T15:25:36.648Z,3.30
2022-08-07T15:28:33.153Z,2.78
2022-08-07T15:30:16.803Z,2.83
2022-08-07T15:32:39.978Z,2.75
2022-08-07T15:34:50.752Z,2.95
2022-08-07T15:39:57.869Z,2.90
2022-08-07T15:44:24.582Z,2.83
2022-08-07T15:46:37.766Z,2.85
2022-08-07T15:51:11.837Z,2.80
2022-08-07T15:56:02.169Z,2.72
2022-08-07T15:58:11.653Z,2.70
2022-08-07T16:00:33.448Z,2.78
2022-08-07T16:02:40.814Z,2.72
2022-08-07T16:04:44.011Z,2.70
2022-08-07T16:06:56.211Z,2.90
2022-08-07T16:09:07.633Z,3.08
2022-08-07T16:11:40.221Z,2.83
2022-08-07T16:13:58.372Z,3.03
2022-08-07T16:16:43.165Z,2.70
2022-08-07T16:18:49.693Z,2.83
2022-08-07T16:22:01.578Z,2.75
2022-08-07T16:23:54.563Z,3.15
2022-08-07T16:26:17.516Z,2.90
2022-08-07T16:30:07.682Z,3.22
2022-08-07T16:31:50.174Z,3.22
2022-08-07T16:34:01.859Z,3.10
2022-08-07T16:36:19.804Z,3.33
2022-08-07T16:39:00.675Z,3.20
2022-08-07T16:41:28.266Z,3.40
2022-08-07T16:44:46.286Z,3.47
2022-08-07T16:47:18.654Z,3.92
2022-08-07T16:50:20.391Z,3.67
2022-08-07T16:52:41.694Z,3.90
2022-08-07T16:54:54.182Z,4.00
2022-08-07T16:58:03.242Z,4.57
2022-08-07T17:00:06.926Z,3.67
2022-08-07T17:02:12.507Z,3.78
2022-08-07T17:04:29.576Z,3.85
2022-08-07T17:07:03.457Z,3.97
2022-08-07T17:10:06.465Z,3.72
2022-08-07T17:12:04.456Z,4.00
2022-08-07T17:14:18.277Z,3.65
2022-08-07T17:16:28.607Z,3.90
2022-08-07T17:18:57.392Z,3.67
2022-08-07T17:21:02.744Z,4.03
2022-08-07T17:23:32.204Z,3.83
2022-08-07T17:28:06.765Z,3.95
2022-08-07T17:30:20.304Z,3.88
2022-08-07T17:32:37.568Z,4.00
2022-08-07T17:35:51.679Z,3.60
2022-08-07T17:38:06.859Z,3.83
2022-08-07T17:40:35.725Z,3.28
2022-08-07T17:42:59.606Z,3.58
2022-08-07T17:45:14.909Z,3.50
2022-08-07T17:47:42.796Z,3.00
2022-08-07T17:50:00.349Z,3.15
2022-08-07T17:52:05.593Z,2.97
2022-08-07T17:54:40.227Z,3.10
2022-08-07T17:56:49.708Z,3.15
2022-08-07T17:58:54.529Z,2.92
2022-08-07T18:01:21.028Z,3.00
2022-08-07T18:04:04.505Z,2.90
2022-08-07T18:06:16.619Z,3.20
2022-08-07T18:08:59.831Z,2.97
2022-08-07T18:11:53.751Z,2.85
2022-08-07T18:14:03.286Z,2.72
2022-08-07T18:16:30.944Z,2.50
2022-08-07T18:21:02.721Z,3.28
2022-08-07T18:21:37.318Z,3.15
2022-08-07T18:23:57.063Z,2.50
2022-08-07T18:26:14.957Z,2.72
2022-08-07T18:28:57.705Z,2.40
2022-08-07T18:31:09.454Z,2.70
2022-08-07T18:34:06.670Z,2.72
2022-08-07T18:36:58.191Z,2.60
2022-08-07T18:40:08.089Z,2.28
2022-08-07T18:41:53.022Z,2.65
2022-08-07T18:44:26.399Z,2.00
2022-08-07T18:46:47.737Z,2.42
2022-08-07T18:50:30.473Z,2.53
2022-08-07T18:52:54.345Z,2.50
2022-08-07T18:55:43.047Z,2.00
2022-08-07T19:00:34.430Z,2.17
2022-08-07T19:03:11.898Z,2.35
2022-08-07T19:05:20.947Z,2.22
2022-08-07T19:07:51.758Z,2.28
2022-08-07T19:10:10.943Z,2.42
2022-08-07T19:12:26.539Z,2.60
2022-08-07T19:15:00.431Z,2.43
2022-08-07T19:17:52.451Z,2.25
2022-08-07T19:20:28.847Z,1.95
2022-08-07T19:22:44.829Z,2.40
2022-08-07T19:24:48.690Z,2.28
2022-08-07T19:28:30.628Z,2.05
2022-08-07T19:31:03.462Z,2.10
2022-08-07T19:32:10.264Z,2.40
2022-08-07T19:34:32.405Z,2.83
2022-08-07T19:36:43.860Z,2.28
2022-08-07T19:38:58.435Z,2.20
2022-08-07T19:41:00.926Z,2.30
2022-08-07T19:43:44.279Z,2.45
2022-08-07T19:46:04.846Z,2.20
2022-08-07T19:48:19.014Z,2.10
2022-08-07T19:50:41.325Z,2.50
2022-08-07T19:52:46.177Z,2.10
2022-08-07T19:55:02.817Z,2.83
2022-08-07T19:58:03.350Z,2.80
2022-08-07T19:59:40.654Z,2.50
2022-08-07T20:01:56.976Z,2.60
2022-08-07T20:04:03.061Z,2.25
2022-08-07T20:06:15.341Z,2.30
2022-08-07T20:08:23.728Z,2.30
2022-08-07T20:10:51.929Z,2.20
2022-08-07T20:13:00.357Z,2.03
2022-08-07T20:15:22.019Z,2.20
2022-08-07T20:17:26.954Z,2.17
2022-08-07T20:19:48.026Z,2.30
2022-08-07T20:21:55.914Z,2.10
2022-08-07T20:24:04.296Z,2.50
2022-08-07T20:26:10.032Z,2.20
2022-08-07T20:28:15.066Z,2.75
2022-08-07T20:30:22.327Z,2.45
2022-08-07T20:32:44.946Z,2.30
2022-08-07T20:34:51.331Z,2.63
2022-08-07T20:36:57.643Z,2.28
2022-08-07T20:39:11.626Z,2.28
2022-08-07T20:41:34.036Z,2.33
2022-08-07T20:43:47.427Z,2.13
2022-08-07T20:46:26.189Z,2.33
2022-08-07T20:48:28.727Z,2.10
2022-08-07T20:50:33.438Z,2.45
2022-08-07T20:52:51.931Z,1.98
2022-08-07T20:54:56.132Z,2.33
2022-08-07T20:57:04.458Z,2.00
2022-08-07T21:00:04.484Z,2.63
2022-08-07T21:01:45.402Z,2.33
2022-08-07T21:04:19.559Z,2.35
2022-08-07T21:06:25.976Z,2.97
2022-08-07T21:08:46.660Z,2.42
2022-08-07T21:10:50.574Z,2.30
2022-08-07T21:13:01.297Z,2.50
2022-08-07T21:15:08.156Z,2.42
2022-08-07T21:18:03.662Z,2.30
2022-08-07T21:19:51.601Z,2.13
2022-08-07T21:22:07.376Z,2.33
2022-08-07T21:24:26.432Z,2.10
2022-08-07T21:26:55.018Z,2.42
2022-08-07T21:29:18.325Z,2.67
2022-08-07T21:32:41.662Z,2.15
2022-08-07T21:34:22.397Z,2.25
2022-08-07T21:36:59.385Z,2.30
2022-08-07T21:39:45.399Z,2.08
2022-08-07T21:42:04.893Z,2.38
2022-08-07T21:44:29.949Z,2.75
2022-08-07T21:46:46.247Z,2.35
2022-08-07T21:48:58.476Z,3.17
2022-08-07T21:51:31.965Z,2.40
2022-08-07T21:53:52.371Z,2.78
2022-08-07T21:56:16.842Z,2.20
2022-08-07T21:58:53.999Z,2.65
2022-08-07T22:01:02.940Z,2.65
2022-08-07T22:03:16.461Z,2.53
2022-08-07T22:05:45.614Z,2.45
2022-08-07T22:07:59.328Z,3.22
2022-08-07T22:10:05.846Z,3.10
2022-08-07T22:12:17.783Z,2.90
2022-08-07T22:14:23.841Z,2.55
2022-08-07T22:16:56.346Z,2.70
2022-08-07T22:19:23.494Z,2.80
2022-08-07T22:22:01.858Z,2.60
2022-08-07T22:24:21.808Z,2.15
2022-08-07T22:27:03.591Z,3.03
2022-08-07T22:29:15.680Z,3.10
2022-08-07T22:31:56.164Z,2.80
2022-08-07T22:34:05.894Z,2.53
2022-08-07T22:36:38.534Z,2.47
2022-08-07T22:39:07.452Z,2.38
2022-08-07T22:42:03.045Z,3.75
2022-08-07T22:43:56.637Z,3.05
2022-08-07T22:47:02.300Z,2.40
2022-08-07T22:48:55.310Z,2.63
2022-08-07T22:51:24.765Z,3.17
2022-08-07T22:54:08.014Z,2.90
2022-08-07T22:56:16.000Z,3.05
2022-08-07T22:58:28.085Z,2.80
2022-08-07T23:00:57.532Z,2.70
2022-08-07T23:03:23.812Z,2.47
2022-08-07T23:06:14.769Z,2.78
2022-08-07T23:08:23.863Z,2.78
2022-08-07T23:10:44.352Z,3.10
2022-08-07T23:12:51.960Z,3.90
2022-08-07T23:14:56.743Z,2.65
2022-08-07T23:17:30.033Z,3.00
2022-08-07T23:20:17.346Z,3.75
2022-08-07T23:22:56.906Z,3.45
2022-08-07T23:25:12.592Z,3.30
2022-08-07T23:28:22.288Z,4.47
2022-08-07T23:30:37.565Z,3.50
2022-08-07T23:34:19.741Z,3.20
2022-08-07T23:35:37.718Z,3.13
2022-08-07T23:38:19.269Z,3.15
2022-08-07T23:41:02.864Z,3.42
2022-08-07T23:43:42.000Z,3.65
2022-08-07T23:46:23.610Z,3.55
2022-08-07T23:48:52.271Z,3.60
2022-08-07T23:53:01.319Z,3.42
2022-08-07T23:53:56.175Z,3.08
2022-08-07T23:56:13.204Z,3.63
2022-08-07T23:58:25.280Z,3.70
